Aviation

Metar/Speci

station

VRMH

METAR VRMH 171600Z 26010KT 9999 FEW017TCU BKN110 27/25 Q1007=

53 minutes ago

VRMM

METAR VRMM 171600Z 24014KT 9999 FEW017 FEW018CB OVC110 27/25 Q1010 CB W TEMPO 25025G40KT 4000 SHRA=

54 minutes ago

VRMK

METAR VRMK 171600Z 25011KT 9999 FEW018TCU SCT120 BKN250 29/26 Q1010=

47 minutes ago

VRMT

METAR VRMT 171600Z 27011KT 9999 SCT018TCU BKN260 30/26 Q1010=

54 minutes ago

VRMG

METAR VRMG 171600Z 27017KT 9999 FEW018 BKN260 29/25 Q1011 NOSIG=

58 minutes ago

Synop

station

43533

AAXX 17154 43533 41460 82509 10269 20246 30076 40078 70262 8227/ 333 59011 82817 87461=

1 hour ago

43555

AAXX 17154 43555 41460 82723 10268 20246 30094 40096 72582 8492/ 333 58008 83816 81917 88460=

1 hour ago

43577

AAXX 17154 43577 42462 72512 10290 20266 30095 40097 8227/ 333 59005 82818 87363=

1 hour ago

43588

AAXX 17154 43588 42460 72711 10295 20262 30099 40100 82238 333 59005 82818 83362 87276=

1 hour ago

43599

AAXX 17154 43599 42460 72718 10295 20252 30103 40105 82202 333 59001 82818 87076=

1 hour ago

Tafs

station

VRMH

VRMH 171100Z 1712/1818 25014KT 9000 FEW016 FEW017TCU BKN100 TEMPO 1712/1718 25018G38KT 3000 TSRA SCT017CB=

5 hours ago

VRMM

VRMM 171100Z 1712/1818 25025KT 9999 FEW016 FEW017TCU BKN100 TEMPO 1712/1718 25025G42KT 3000 TSRA SCT017CB=

5 hours ago

VRMK

VRMK 171100Z 1712/1812 24012KT 9999 FEW018TCU TEMPO 1712/1718 FEW018CB=

5 hours ago

VRMT

VRMT 171100Z 1712/1812 27012KT 9999 FEW018TCU TEMPO 1712/1718 FEW018CB=

5 hours ago

VRMG

VRMG 171100Z 1712/1818 26015KT 9999 FEW018TCU TEMPO 1712/1718 FEW018CB=

5 hours ago

Sigmet

Flight folders

No flight folder available at the moment.